CDT,Max TemperatureF,Mean TemperatureF,Min TemperatureF,Max Dew PointF,MeanDew PointF,Min DewpointF,Max Humidity, Mean Humidity, Min Humidity, Max Sea Level PressureIn, Mean Sea Level PressureIn, Min Sea Level PressureIn, Max VisibilityMiles, Mean VisibilityMiles, Min VisibilityMiles, Max Wind SpeedMPH, Mean Wind SpeedMPH, Max Gust SpeedMPH,PrecipitationIn, CloudCover, Events, WindDirDegrees
2012-3-1,40,31,22,29,25,19,87,70,52,29.74,29.69,29.65,10,10,10,21,9,25,0.00,2,,256
2012-3-2,34,28,23,23,19,17,88,69,50,29.92,29.82,29.74,10,10,10,31,11,40,0.00,0,,291
2012-3-3,39,29,19,27,20,14,81,70,55,29.94,29.91,29.83,10,10,2,20,10,28,0.00,4,Snow,286
2012-3-4,45,38,32,34,30,26,98,70,49,30.10,29.91,29.76,10,10,4,34,12,41,0.00,5,Snow,303
2012-3-5,64,45,26,31,27,23,95,61,21,30.11,29.94,29.75,10,10,10,29,14,37,0.00,0,,206
2012-3-6,75,57,39,27,22,14,60,33,10,29.65,29.55,29.42,10,10,10,24,12,29,0.00,0,,216
2012-3-7,38,34,30,33,24,18,83,67,48,29.99,29.80,29.55,10,10,10,33,25,47,0.00,6,,339
2012-3-8,52,38,24,20,17,11,80,49,19,30.38,30.30,30.16,10,10,10,16,9,23,0.00,0,,287
2012-3-9,68,46,25,23,17,9,82,46,10,30.43,30.32,30.12,10,10,10,28,8,33,0.00,0,,198
2012-3-10,72,55,38,33,19,12,41,26,17,30.07,29.96,29.83,10,10,10,25,18,32,0.00,0,,210
2012-3-11,55,48,40,45,39,33,93,70,50,29.88,29.78,29.64,10,10,10,24,16,30,0.00,3,Rain,185
2012-3-12,69,53,37,43,35,24,100,64,18,29.85,29.65,29.51,10,10,4,18,13,25,0.29,2,Rain,263
2012-3-13,78,58,39,36,32,23,83,49,12,29.92,29.83,29.67,10,10,10,25,11,32,0.00,0,,177
2012-3-14,63,52,41,34,27,24,58,38,24,29.97,29.86,29.69,10,9,0,22,9,26,0.00,0,,313
2012-3-15,71,54,36,36,32,29,83,50,20,29.99,29.95,29.92,10,10,2,16,6,23,0.00,0,,287
2012-3-16,81,60,40,52,37,29,90,46,15,29.96,29.79,29.69,10,10,10,24,11,30,0.00,0,,179
2012-3-17,75,62,48,54,46,33,100,57,28,29.69,29.62,29.55,10,9,5,21,10,25,0.00,0,,161
2012-3-18,83,70,57,58,48,24,97,60,12,29.56,29.50,29.41,10,10,7,34,21,43,0.00,0,,171
2012-3-19,63,56,47,56,43,22,80,61,22,29.62,29.49,29.41,10,10,4,37,18,44,0.19,4,Rain-Thunderstorm,188
2012-3-20,55,46,37,36,27,19,69,49,28,29.95,29.89,29.66,10,10,10,20,13,28,0.00,3,,3
2012-3-21,64,48,32,36,30,24,87,55,24,30.00,29.95,29.91,10,10,5,13,4,17,0.00,0,,100
2012-3-22,56,52,49,56,51,42,100,93,68,29.98,29.92,29.88,10,6,0,15,8,17,0.17,7,Fog-Rain,39
2012-3-23,68,52,36,48,39,33,100,71,27,29.97,29.94,29.90,10,9,1,9,4,9,0.00,0,,199
2012-3-24,59,51,43,46,42,38,90,69,57,30.10,30.00,29.90,10,10,10,25,11,32,0.00,0,,290
2012-3-25,59,48,37,48,43,36,100,92,65,30.14,30.09,29.99,10,6,0,15,5,,0.00,6,Fog,63
2012-3-26,84,64,45,56,47,33,100,72,16,29.98,29.75,29.47,10,8,2,36,13,45,0.00,1,,136
2012-3-27,67,60,52,36,29,22,50,32,23,29.92,29.79,29.63,10,10,10,32,18,43,0.00,1,,274
2012-3-28,74,56,39,40,34,30,78,42,20,30.01,29.93,29.84,10,10,10,18,9,25,0.00,0,,145
2012-3-29,64,56,48,50,41,36,89,60,40,29.85,29.81,29.78,10,10,10,22,12,25,0.02,2,Rain-Thunderstorm,240
2012-3-30,74,56,39,44,35,24,94,53,15,29.83,29.76,29.69,10,10,10,25,9,33,0.00,1,Rain,234
2012-3-31,80,65,50,39,34,30,59,34,16,29.77,29.72,29.67,10,10,10,20,8,26,0.00,0,,222